createdAt,value
2023-04-09T00:00:29.345Z,100153.25
2023-04-09T00:02:57.418Z,100140.06
2023-04-09T00:05:24.554Z,100140.91
2023-04-09T00:07:52.122Z,100138.13
2023-04-09T00:10:19.086Z,100137.13
2023-04-09T00:12:46.238Z,100143.19
2023-04-09T00:15:20.904Z,100135.25
2023-04-09T00:17:56.652Z,100133.41
2023-04-09T00:20:23.810Z,100129.81
2023-04-09T00:22:52.107Z,100132.34
2023-04-09T00:25:20.316Z,100133.03
2023-04-09T00:27:47.465Z,100140.69
2023-04-09T00:30:14.461Z,100136.03
2023-04-09T00:32:41.854Z,100138.34
2023-04-09T00:35:09.358Z,100132.91
2023-04-09T00:37:36.872Z,100139.69
2023-04-09T00:40:05.545Z,100135.13
2023-04-09T00:42:38.388Z,100137.69
2023-04-09T00:45:06.571Z,100128.84
2023-04-09T00:47:35.373Z,100131.22
2023-04-09T00:50:03.543Z,100135.28
2023-04-09T00:52:31.377Z,100129.31
2023-04-09T00:55:01.080Z,100131.94
2023-04-09T00:57:29.051Z,100138.75
2023-04-09T00:59:56.614Z,100138.50
2023-04-09T01:02:23.605Z,100140.25
2023-04-09T01:04:51.703Z,100131.72
2023-04-09T01:07:18.712Z,100142.34
2023-04-09T01:10:00.647Z,100138.81
2023-04-09T01:12:47.195Z,100137.81
2023-04-09T01:15:18.528Z,100137.19
2023-04-09T01:18:11.772Z,100134.22
2023-04-09T01:20:38.966Z,100128.13
2023-04-09T01:23:33.821Z,100128.09
2023-04-09T01:26:29.962Z,100122.16
2023-04-09T01:28:57.889Z,100124.78
2023-04-09T01:31:31.167Z,100122.19
2023-04-09T01:34:00.939Z,100123.88
2023-04-09T01:36:31.472Z,100134.28
2023-04-09T01:39:01.835Z,100134.47
2023-04-09T01:41:32.704Z,100135.13
2023-04-09T01:44:02.052Z,100129.84
2023-04-09T01:46:30.260Z,100133.16
2023-04-09T01:48:58.240Z,100134.22
2023-04-09T01:51:27.487Z,100144.00
2023-04-09T01:53:55.178Z,100145.22
2023-04-09T01:56:22.144Z,100140.25
2023-04-09T01:58:49.422Z,100146.69
2023-04-09T02:01:58.820Z,100148.81
2023-04-09T02:04:52.415Z,100147.47
2023-04-09T02:07:25.984Z,100150.31
2023-04-09T02:09:55.221Z,100147.19
2023-04-09T02:12:24.372Z,100150.94
2023-04-09T02:14:52.854Z,100151.94
2023-04-09T02:17:22.926Z,100144.16
2023-04-09T02:19:49.981Z,100146.84
2023-04-09T02:22:17.461Z,100148.53
2023-04-09T02:24:49.154Z,100149.34
2023-04-09T02:27:16.978Z,100150.19
2023-04-09T02:29:46.034Z,100148.47
2023-04-09T02:32:13.805Z,100149.34
2023-04-09T02:34:41.541Z,100151.13
2023-04-09T02:37:09.097Z,100148.50
2023-04-09T02:39:36.821Z,100147.69
2023-04-09T02:42:08.244Z,100143.38
2023-04-09T02:44:38.206Z,100149.63
2023-04-09T02:47:05.599Z,100146.13
2023-04-09T02:49:33.025Z,100145.34
2023-04-09T02:52:00.767Z,100155.97
2023-04-09T02:54:27.832Z,100153.38
2023-04-09T02:56:55.427Z,100141.25
2023-04-09T02:59:23.074Z,100150.09
2023-04-09T03:01:52.584Z,100139.63
2023-04-09T03:04:23.417Z,100146.66
2023-04-09T03:06:55.366Z,100146.69
2023-04-09T03:09:23.128Z,100154.66
2023-04-09T03:11:52.283Z,100158.47
2023-04-09T03:14:21.336Z,100162.94
2023-04-09T03:16:49.801Z,100164.72
2023-04-09T03:19:17.064Z,100165.75
2023-04-09T03:21:45.588Z,100164.03
2023-04-09T03:24:14.365Z,100168.50
2023-04-09T03:26:43.898Z,100171.25
2023-04-09T03:29:12.236Z,100166.09
2023-04-09T03:31:40.441Z,100175.72
2023-04-09T03:34:09.391Z,100173.13
2023-04-09T03:36:40.219Z,100178.28
2023-04-09T03:39:18.406Z,100176.47
2023-04-09T03:41:48.040Z,100180.78
2023-04-09T03:44:18.386Z,100176.28
2023-04-09T03:47:09.959Z,100165.69
2023-04-09T03:49:42.009Z,100168.19
2023-04-09T03:52:24.289Z,100170.59
2023-04-09T03:55:04.221Z,100159.88
2023-04-09T03:57:33.982Z,100160.63
2023-04-09T04:00:03.511Z,100150.84
2023-04-09T04:02:41.977Z,100158.53
2023-04-09T04:05:12.601Z,100146.81
2023-04-09T04:07:47.025Z,100142.22
2023-04-09T04:10:21.819Z,100149.88
2023-04-09T04:12:50.334Z,100150.50
2023-04-09T04:15:43.154Z,100151.13
2023-04-09T04:18:15.085Z,100155.94
2023-04-09T04:20:46.159Z,100157.31
2023-04-09T04:23:15.284Z,100162.25
2023-04-09T04:26:13.380Z,100159.22
2023-04-09T04:28:43.134Z,100153.56
2023-04-09T04:31:20.137Z,100154.78
2023-04-09T04:33:48.090Z,100157.69
2023-04-09T04:36:18.124Z,100160.53
2023-04-09T04:38:53.632Z,100148.78
2023-04-09T04:41:44.514Z,100157.94
2023-04-09T04:44:23.111Z,100152.44
2023-04-09T04:47:01.786Z,100154.72
2023-04-09T04:49:31.030Z,100153.50
2023-04-09T04:52:01.198Z,100154.91
2023-04-09T04:54:30.744Z,100153.13
2023-04-09T04:57:04.272Z,100152.63
2023-04-09T04:59:42.662Z,100154.97
2023-04-09T05:02:16.552Z,100153.16
2023-04-09T05:05:11.757Z,100154.34
2023-04-09T05:07:49.812Z,100155.78
2023-04-09T05:10:19.551Z,100161.69
2023-04-09T05:12:49.094Z,100162.66
2023-04-09T05:15:30.593Z,100150.47
2023-04-09T05:18:01.976Z,100158.31
2023-04-09T05:20:29.935Z,100156.63
2023-04-09T05:23:06.782Z,100162.19
2023-04-09T05:25:40.656Z,100164.63
2023-04-09T05:28:14.560Z,100166.38
2023-04-09T05:30:46.791Z,100165.44
2023-04-09T05:33:14.887Z,100162.56
2023-04-09T05:35:43.195Z,100162.94
2023-04-09T05:38:11.416Z,100165.56
2023-04-09T05:40:39.283Z,100168.34
2023-04-09T05:43:12.402Z,100154.31
2023-04-09T05:45:43.666Z,100156.41
2023-04-09T05:48:11.766Z,100158.88
2023-04-09T05:50:51.447Z,100159.00
2023-04-09T05:53:25.651Z,100159.94
2023-04-09T05:55:53.034Z,100160.06
2023-04-09T05:58:24.526Z,100168.47
2023-04-09T06:00:53.343Z,100169.41
2023-04-09T06:03:21.288Z,100172.91
2023-04-09T06:05:50.554Z,100161.91
2023-04-09T06:08:18.194Z,100168.75
2023-04-09T06:10:46.053Z,100167.97
2023-04-09T06:13:13.794Z,100158.66
2023-04-09T06:15:42.255Z,100161.16
2023-04-09T06:18:10.594Z,100166.88
2023-04-09T06:20:38.177Z,100161.78
2023-04-09T06:23:10.713Z,100161.19
2023-04-09T06:25:39.138Z,100163.28
2023-04-09T06:28:06.207Z,100164.13
2023-04-09T06:30:36.403Z,100155.91
2023-04-09T06:33:04.816Z,100157.13
2023-04-09T06:35:33.128Z,100158.59
2023-04-09T06:38:00.966Z,100154.00
2023-04-09T06:40:28.779Z,100160.28
2023-04-09T06:42:57.017Z,100161.28
2023-04-09T06:45:31.750Z,100157.13
2023-04-09T06:48:01.431Z,100157.41
2023-04-09T06:50:29.096Z,100165.69
2023-04-09T06:52:58.202Z,100174.88
2023-04-09T06:55:27.379Z,100173.78
2023-04-09T06:57:55.036Z,100176.59
2023-04-09T07:00:24.025Z,100177.09
2023-04-09T07:02:53.263Z,100176.88
2023-04-09T07:05:21.039Z,100168.50
2023-04-09T07:07:50.412Z,100169.13
2023-04-09T07:10:19.021Z,100174.72
2023-04-09T07:12:49.041Z,100177.59
2023-04-09T07:15:17.351Z,100184.22
2023-04-09T07:17:45.248Z,100189.81
2023-04-09T07:20:12.951Z,100196.28
2023-04-09T07:22:40.674Z,100196.19
2023-04-09T07:25:08.950Z,100204.66
2023-04-09T07:27:36.691Z,100194.84
2023-04-09T07:30:04.930Z,100205.13
2023-04-09T07:32:32.999Z,100207.69
2023-04-09T07:35:00.860Z,100208.09
2023-04-09T07:37:29.488Z,100204.81
2023-04-09T07:39:56.762Z,100197.28
2023-04-09T07:42:25.293Z,100200.03
2023-04-09T07:44:52.967Z,100196.38
2023-04-09T07:47:21.386Z,100201.63
2023-04-09T07:49:49.633Z,100195.13
2023-04-09T07:52:17.187Z,100200.50
2023-04-09T07:54:45.199Z,100202.00
2023-04-09T07:57:13.170Z,100198.00
2023-04-09T07:59:40.874Z,100190.34
2023-04-09T08:02:09.877Z,100190.66
2023-04-09T08:04:38.734Z,100189.88
2023-04-09T08:07:07.092Z,100191.63
2023-04-09T08:09:35.032Z,100185.66
2023-04-09T08:12:02.973Z,100187.88
2023-04-09T08:14:30.091Z,100187.16
2023-04-09T08:16:58.256Z,100187.56
2023-04-09T08:19:26.936Z,100185.69
2023-04-09T08:21:54.751Z,100181.84
2023-04-09T08:24:23.236Z,100178.91
2023-04-09T08:26:50.996Z,100171.63
2023-04-09T08:29:18.960Z,100174.41
2023-04-09T08:31:46.830Z,100168.91
2023-04-09T08:34:16.853Z,100169.38
2023-04-09T08:36:47.882Z,100170.94
2023-04-09T08:39:19.650Z,100172.97
2023-04-09T08:41:51.032Z,100168.25
2023-04-09T08:44:19.572Z,100162.69
2023-04-09T08:46:47.172Z,100166.25
2023-04-09T08:49:14.766Z,100159.13
2023-04-09T08:51:47.403Z,100165.53
2023-04-09T08:54:20.667Z,100167.81
2023-04-09T08:56:48.994Z,100158.88
2023-04-09T08:59:20.427Z,100154.03
2023-04-09T09:01:54.950Z,100163.59
2023-04-09T09:04:23.410Z,100160.28
2023-04-09T09:06:53.704Z,100165.53
2023-04-09T09:09:22.934Z,100160.56
2023-04-09T09:11:52.104Z,100155.16
2023-04-09T09:14:20.851Z,100147.97
2023-04-09T09:16:58.388Z,100152.88
2023-04-09T09:19:26.869Z,100151.13
2023-04-09T09:21:58.750Z,100144.22
2023-04-09T09:24:26.904Z,100141.03
2023-04-09T09:26:54.734Z,100136.47
2023-04-09T09:29:22.163Z,100126.22
2023-04-09T09:31:52.011Z,100123.44
2023-04-09T09:34:22.010Z,100138.00
2023-04-09T09:36:50.205Z,100131.28
2023-04-09T09:39:18.615Z,100125.38
2023-04-09T09:41:47.601Z,100121.75
2023-04-09T09:44:32.210Z,100118.84
2023-04-09T09:46:59.985Z,100120.03
2023-04-09T09:49:27.078Z,100117.91
2023-04-09T09:52:00.285Z,100109.91
2023-04-09T09:54:32.419Z,100113.69
2023-04-09T09:57:05.118Z,100119.50
2023-04-09T09:59:38.227Z,100110.50
2023-04-09T10:02:08.129Z,100098.72
2023-04-09T10:04:39.734Z,100100.22
2023-04-09T10:07:09.129Z,100097.25
2023-04-09T10:09:41.149Z,100087.09
2023-04-09T10:12:09.677Z,100092.75
2023-04-09T10:14:39.639Z,100087.19
2023-04-09T10:17:07.540Z,100081.13
2023-04-09T10:19:41.855Z,100074.88
2023-04-09T10:22:17.234Z,100075.25
2023-04-09T10:24:46.710Z,100070.56
2023-04-09T10:27:17.520Z,100058.16
2023-04-09T10:29:47.079Z,100069.28
2023-04-09T10:32:24.414Z,100064.47
2023-04-09T10:34:53.127Z,100063.38
2023-04-09T10:37:26.520Z,100061.75
2023-04-09T10:39:55.244Z,100056.16
2023-04-09T10:42:37.366Z,100053.44
2023-04-09T10:45:09.150Z,100058.88
2023-04-09T10:47:41.821Z,100053.53
2023-04-09T10:50:29.765Z,100051.56
2023-04-09T10:53:00.483Z,100051.66
2023-04-09T10:55:39.155Z,100038.94
2023-04-09T10:58:13.975Z,100036.19
2023-04-09T11:00:43.528Z,100041.66
2023-04-09T11:03:22.005Z,100039.78
2023-04-09T11:06:11.167Z,100048.38
2023-04-09T11:08:39.716Z,100040.78
2023-04-09T11:11:09.107Z,100048.75
2023-04-09T11:13:36.931Z,100046.06
2023-04-09T11:16:07.534Z,100051.53
2023-04-09T11:18:35.840Z,100042.19
2023-04-09T11:21:07.186Z,100048.13
2023-04-09T11:23:36.394Z,100042.34
2023-04-09T11:26:04.282Z,100050.00
2023-04-09T11:28:35.791Z,100044.44
2023-04-09T11:31:07.463Z,100035.47
2023-04-09T11:33:35.847Z,100033.44
2023-04-09T11:36:06.838Z,100032.50
2023-04-09T11:38:38.976Z,100033.56
2023-04-09T11:41:06.511Z,100024.81
2023-04-09T11:43:37.032Z,100023.47
2023-04-09T11:46:04.785Z,100021.47
2023-04-09T11:48:33.018Z,100023.31
2023-04-09T11:51:04.511Z,100011.50
2023-04-09T11:53:33.033Z,100004.63
2023-04-09T11:56:00.185Z,100004.06
2023-04-09T11:58:28.408Z,100008.00
2023-04-09T12:00:58.704Z,100004.66
2023-04-09T12:03:30.514Z,100004.75
2023-04-09T12:06:02.057Z,99999.00
2023-04-09T12:08:30.157Z,99992.94
2023-04-09T12:10:57.764Z,99991.28
2023-04-09T12:13:34.214Z,99985.94
2023-04-09T12:16:03.455Z,99978.22
2023-04-09T12:18:31.482Z,99972.13
2023-04-09T12:20:59.565Z,99959.50
2023-04-09T12:23:26.777Z,99970.19
2023-04-09T12:25:55.868Z,99960.91
2023-04-09T12:28:23.180Z,99961.72
2023-04-09T12:30:52.127Z,99960.53
2023-04-09T12:33:19.703Z,99947.78
2023-04-09T12:35:47.312Z,99947.88
2023-04-09T12:38:15.703Z,99946.94
2023-04-09T12:40:43.486Z,99945.06
2023-04-09T12:43:12.492Z,99934.44
2023-04-09T12:45:41.417Z,99931.97
2023-04-09T12:48:09.502Z,99924.75
2023-04-09T12:50:36.955Z,99919.16
2023-04-09T12:53:04.047Z,99925.50
2023-04-09T12:55:31.428Z,99930.72
2023-04-09T12:57:58.570Z,99930.97
2023-04-09T13:00:26.057Z,99924.19
2023-04-09T13:02:56.174Z,99923.59
2023-04-09T13:05:25.235Z,99924.72
2023-04-09T13:07:53.008Z,99929.59
2023-04-09T13:10:21.034Z,99931.00
2023-04-09T13:12:48.647Z,99935.03
2023-04-09T13:15:17.012Z,99934.28
2023-04-09T13:17:44.947Z,99946.94
2023-04-09T13:20:12.360Z,99945.41
2023-04-09T13:22:39.958Z,99940.94
2023-04-09T13:25:07.719Z,99945.22
2023-04-09T13:27:35.098Z,99931.28
2023-04-09T13:30:02.268Z,99944.41
2023-04-09T13:32:29.931Z,99942.47
2023-04-09T13:34:58.106Z,99939.34
2023-04-09T13:37:26.266Z,99941.28
2023-04-09T13:39:54.086Z,99952.50
2023-04-09T13:42:22.747Z,99951.06
2023-04-09T13:44:49.709Z,99945.25
2023-04-09T13:47:18.460Z,99953.53
2023-04-09T13:49:46.618Z,99954.63
2023-04-09T13:52:15.873Z,99965.78
2023-04-09T13:54:46.409Z,99966.81
2023-04-09T13:57:13.445Z,99964.41
2023-04-09T13:59:43.742Z,99961.88
2023-04-09T14:02:11.707Z,99971.63
2023-04-09T14:04:39.071Z,99978.75
2023-04-09T14:07:06.888Z,99977.13
2023-04-09T14:09:34.568Z,99993.22
2023-04-09T14:12:02.259Z,99992.53
2023-04-09T14:14:30.141Z,99994.41
2023-04-09T14:16:57.702Z,100004.34
2023-04-09T14:19:25.047Z,99997.75
2023-04-09T14:21:55.929Z,100001.13
2023-04-09T14:24:24.114Z,100008.50
2023-04-09T14:26:53.787Z,100015.03
2023-04-09T14:29:22.151Z,100002.06
2023-04-09T14:31:50.060Z,100010.03
2023-04-09T14:34:17.567Z,100010.09
2023-04-09T14:36:44.738Z,100006.22
2023-04-09T14:39:12.550Z,100005.91
2023-04-09T14:41:39.953Z,100010.78
2023-04-09T14:44:08.923Z,100021.03
2023-04-09T14:46:37.774Z,100025.03
2023-04-09T14:49:05.060Z,100031.91
2023-04-09T14:51:32.494Z,100031.22
2023-04-09T14:53:59.695Z,100037.44
2023-04-09T14:56:27.425Z,100031.50
2023-04-09T14:58:54.929Z,100030.44
2023-04-09T15:01:22.890Z,100029.28
2023-04-09T15:03:50.756Z,100031.81
2023-04-09T15:06:17.812Z,100028.75
2023-04-09T15:08:46.158Z,100037.06
2023-04-09T15:11:17.886Z,100039.88
2023-04-09T15:13:46.094Z,100048.88
2023-04-09T15:16:24.515Z,100039.28
2023-04-09T15:18:52.871Z,100042.47
2023-04-09T15:21:20.934Z,100030.06
2023-04-09T15:23:51.591Z,100029.53
2023-04-09T15:26:19.210Z,100019.88
2023-04-09T15:28:46.724Z,100017.00
2023-04-09T15:31:14.605Z,100023.56
2023-04-09T15:33:44.263Z,100027.72
2023-04-09T15:36:12.814Z,100044.84
2023-04-09T15:38:40.791Z,100047.94
2023-04-09T15:41:08.717Z,100054.38
2023-04-09T15:43:36.529Z,100050.44
2023-04-09T15:46:11.519Z,100054.31
2023-04-09T15:48:38.756Z,100056.13
2023-04-09T15:51:06.226Z,100051.53
2023-04-09T15:53:33.182Z,100053.06
2023-04-09T15:56:00.680Z,100042.47
2023-04-09T15:58:29.118Z,100051.72
2023-04-09T16:00:57.250Z,100039.81
2023-04-09T16:03:25.252Z,100038.09
2023-04-09T16:05:52.242Z,100030.84
2023-04-09T16:08:19.353Z,100022.81
2023-04-09T16:10:46.106Z,100026.22
2023-04-09T16:13:13.331Z,100022.63
2023-04-09T16:15:40.619Z,100026.16
2023-04-09T16:18:08.482Z,100028.72
2023-04-09T16:20:36.714Z,100027.00
2023-04-09T16:23:04.500Z,100019.13
2023-04-09T16:25:32.110Z,100017.53
2023-04-09T16:28:00.361Z,100019.47
2023-04-09T16:30:29.258Z,100019.66
2023-04-09T16:32:58.572Z,100030.72
2023-04-09T16:35:26.432Z,100027.41
2023-04-09T16:37:56.255Z,100026.69
2023-04-09T16:40:24.706Z,100031.44
2023-04-09T16:42:52.023Z,100025.47
2023-04-09T16:45:19.278Z,100030.25
2023-04-09T16:47:50.132Z,100031.03
2023-04-09T16:50:19.622Z,100029.59
2023-04-09T16:52:47.619Z,100041.09
2023-04-09T16:55:16.005Z,100040.22
2023-04-09T16:57:43.391Z,100044.53
2023-04-09T17:00:14.174Z,100048.22
2023-04-09T17:02:41.911Z,100048.78
2023-04-09T17:05:09.745Z,100050.56
2023-04-09T17:07:36.650Z,100055.94
2023-04-09T17:10:03.531Z,100048.97
2023-04-09T17:12:31.395Z,100046.28
2023-04-09T17:14:58.798Z,100052.66
2023-04-09T17:17:26.119Z,100056.94
2023-04-09T17:19:53.627Z,100059.22
2023-04-09T17:22:20.715Z,100061.09
2023-04-09T17:24:50.067Z,100057.72
2023-04-09T17:27:17.244Z,100058.72
2023-04-09T17:29:44.508Z,100067.34
2023-04-09T17:32:11.639Z,100060.19
2023-04-09T17:34:38.901Z,100072.50
2023-04-09T17:37:05.998Z,100063.50
2023-04-09T17:39:33.447Z,100075.84
2023-04-09T17:42:01.824Z,100071.44
2023-04-09T17:44:29.144Z,100075.09
2023-04-09T17:46:56.544Z,100074.22
2023-04-09T17:49:23.854Z,100076.88
2023-04-09T17:51:51.437Z,100072.50
2023-04-09T17:54:18.578Z,100077.88
2023-04-09T17:56:45.895Z,100079.97
2023-04-09T17:59:13.696Z,100090.56
2023-04-09T18:01:41.337Z,100086.19
2023-04-09T18:04:08.580Z,100080.88
2023-04-09T18:06:38.524Z,100082.78
2023-04-09T18:09:05.643Z,100080.59
2023-04-09T18:11:32.757Z,100075.69
2023-04-09T18:14:00.136Z,100093.69
2023-04-09T18:16:27.394Z,100089.84
2023-04-09T18:18:55.272Z,100087.84
2023-04-09T18:21:24.862Z,100089.63
2023-04-09T18:23:52.357Z,100094.69
2023-04-09T18:26:19.694Z,100095.69
2023-04-09T18:28:46.618Z,100099.78
2023-04-09T18:31:13.899Z,100103.25
2023-04-09T18:33:41.382Z,100092.88
2023-04-09T18:36:09.270Z,100092.03
2023-04-09T18:38:37.096Z,100095.53
2023-04-09T18:41:04.403Z,100097.03
2023-04-09T18:43:31.554Z,100098.63
2023-04-09T18:45:59.389Z,100098.13
2023-04-09T18:48:26.764Z,100095.81
2023-04-09T18:50:53.685Z,100087.75
2023-04-09T18:53:21.144Z,100087.66
2023-04-09T18:55:48.295Z,100082.69
2023-04-09T18:58:16.340Z,100075.66
2023-04-09T19:00:43.900Z,100078.38
2023-04-09T19:03:12.424Z,100075.59
2023-04-09T19:05:40.099Z,100082.59
2023-04-09T19:08:07.635Z,100080.06
2023-04-09T19:10:35.033Z,100088.22
2023-04-09T19:13:04.570Z,100081.97
2023-04-09T19:15:31.462Z,100089.03
2023-04-09T19:17:58.466Z,100083.03
2023-04-09T19:20:25.676Z,100082.94
2023-04-09T19:22:54.649Z,100080.78
2023-04-09T19:25:23.528Z,100083.22
2023-04-09T19:27:50.960Z,100079.59
2023-04-09T19:30:20.183Z,100082.84
2023-04-09T19:32:47.269Z,100076.63
2023-04-09T19:35:14.688Z,100080.94
2023-04-09T19:37:41.804Z,100088.75
2023-04-09T19:40:09.257Z,100087.66
2023-04-09T19:42:36.473Z,100086.56
2023-04-09T19:45:03.563Z,100081.97
2023-04-09T19:47:30.953Z,100084.63
2023-04-09T19:49:58.541Z,100083.78
2023-04-09T19:52:26.351Z,100079.22
2023-04-09T19:54:56.905Z,100083.84
2023-04-09T19:57:26.636Z,100084.28
2023-04-09T19:59:54.338Z,100089.38
2023-04-09T20:02:21.527Z,100084.09
2023-04-09T20:04:48.948Z,100078.97
2023-04-09T20:07:16.345Z,100085.19
2023-04-09T20:09:43.785Z,100082.97
2023-04-09T20:12:10.798Z,100081.50
2023-04-09T20:14:40.785Z,100084.56
2023-04-09T20:17:09.854Z,100076.94
2023-04-09T20:19:37.935Z,100082.22
2023-04-09T20:22:05.162Z,100086.75
2023-04-09T20:24:32.385Z,100076.13
2023-04-09T20:27:00.252Z,100079.47
2023-04-09T20:29:27.863Z,100087.41
2023-04-09T20:31:54.938Z,100077.66
2023-04-09T20:34:27.009Z,100079.53
2023-04-09T20:36:55.820Z,100078.53
2023-04-09T20:39:25.549Z,100080.44
2023-04-09T20:41:56.875Z,100077.78
2023-04-09T20:44:24.956Z,100074.34
2023-04-09T20:46:52.238Z,100081.31
2023-04-09T20:49:19.524Z,100075.97
2023-04-09T20:51:46.829Z,100082.09
2023-04-09T20:54:13.864Z,100083.03
2023-04-09T20:56:41.212Z,100075.97
2023-04-09T20:59:08.302Z,100077.72
2023-04-09T21:01:36.468Z,100077.66
2023-04-09T21:04:04.439Z,100081.69
2023-04-09T21:06:31.901Z,100078.84
2023-04-09T21:08:59.880Z,100082.66
2023-04-09T21:11:27.146Z,100074.94
2023-04-09T21:13:55.263Z,100077.34
2023-04-09T21:16:23.599Z,100071.88
2023-04-09T21:18:51.352Z,100072.94
2023-04-09T21:21:19.324Z,100075.47
2023-04-09T21:23:46.514Z,100075.22
2023-04-09T21:26:15.293Z,100075.00
2023-04-09T21:28:42.570Z,100073.13
2023-04-09T21:31:11.244Z,100081.31
2023-04-09T21:33:39.589Z,100074.75
2023-04-09T21:36:08.132Z,100079.88
2023-04-09T21:38:35.507Z,100075.91
2023-04-09T21:41:03.053Z,100073.38
2023-04-09T21:43:30.437Z,100073.56
2023-04-09T21:45:57.918Z,100075.41
2023-04-09T21:48:26.549Z,100081.13
2023-04-09T21:50:54.034Z,100074.09
2023-04-09T21:53:21.665Z,100081.97
2023-04-09T21:55:49.309Z,100081.56
2023-04-09T21:58:16.757Z,100087.66
2023-04-09T22:00:44.298Z,100083.34
2023-04-09T22:03:12.800Z,100084.50
2023-04-09T22:05:40.028Z,100089.50
2023-04-09T22:08:07.516Z,100088.22
2023-04-09T22:10:34.606Z,100072.78
2023-04-09T22:13:01.517Z,100082.47
2023-04-09T22:15:29.363Z,100084.75
2023-04-09T22:17:56.456Z,100087.41
2023-04-09T22:20:25.184Z,100086.59
2023-04-09T22:22:54.382Z,100083.88
2023-04-09T22:25:22.598Z,100083.59
2023-04-09T22:27:53.419Z,100086.06
2023-04-09T22:30:24.608Z,100081.91
2023-04-09T22:32:51.975Z,100079.03
2023-04-09T22:35:19.530Z,100080.03
2023-04-09T22:37:47.258Z,100076.56
2023-04-09T22:40:16.321Z,100080.09
2023-04-09T22:42:44.721Z,100074.03
2023-04-09T22:45:13.008Z,100073.97
2023-04-09T22:47:42.858Z,100065.22
2023-04-09T22:50:11.754Z,100069.06
2023-04-09T22:52:39.009Z,100060.84
2023-04-09T22:55:06.634Z,100062.25
2023-04-09T22:57:33.756Z,100070.31
2023-04-09T23:00:00.870Z,100064.78
2023-04-09T23:02:27.836Z,100056.09
2023-04-09T23:04:55.349Z,100063.66
2023-04-09T23:07:22.580Z,100063.59
2023-04-09T23:09:49.751Z,100051.41
2023-04-09T23:12:16.655Z,100058.47
2023-04-09T23:14:44.036Z,100060.16
2023-04-09T23:17:11.345Z,100061.25
2023-04-09T23:19:38.285Z,100055.50
2023-04-09T23:22:05.901Z,100055.56
2023-04-09T23:24:33.080Z,100050.25
2023-04-09T23:27:00.771Z,100062.59
2023-04-09T23:29:27.641Z,100055.09
2023-04-09T23:31:55.028Z,100059.31
2023-04-09T23:34:22.009Z,100055.56
2023-04-09T23:36:48.843Z,100056.19
2023-04-09T23:39:15.726Z,100057.09
2023-04-09T23:41:42.826Z,100055.00
2023-04-09T23:44:10.169Z,100055.75
2023-04-09T23:46:37.503Z,100049.59
2023-04-09T23:49:04.629Z,100049.78
2023-04-09T23:51:31.900Z,100048.38
2023-04-09T23:53:58.795Z,100045.84
2023-04-09T23:56:25.627Z,100043.75
2023-04-09T23:58:52.615Z,100042.00
